Webster Springs, WV

4:32 PM EDT on August 26, 2016 (GMT -0400)
Webster Springs | | Change Station

Elev 1526 ft 38.48 °N, 80.42 °W | Updated 6 seconds ago

Partly Cloudy
Partly Cloudy
88.4 °F
Feels Like 100 °F
N
0.0
Wind Variable Wind from WSW

Today
High -- | Low -- °F
--% Chance of Precip.
Yesterday
High -- | Low -- °F
Precip. -- in
Pressure 30.14 in
Visibility 10.0 miles
Clouds Few 6500 ft
Heat Index 100 °F
Dew Point 76 °F
Humidity 67%
Rainfall 0.00 in
Snow Depth Not available.
6:45 AM 7:59 PM
Waning Crescent, 31% visible
METAR KEKN 261951Z AUTO VRB04KT 10SM FEW065 30/19 A3018 RMK AO2 SLP204 T03000189 TSNO
Pressure 30.14 in
Visibility 10.0 miles
Clouds Few 6500 ft
Heat Index 100 °F
Dew Point 76 °F
Humidity 67%
Rainfall 0.00 in
Snow Depth Not available.
6:45 AM 7:59 PM
Waning Crescent, 31% visible
METAR KEKN 261951Z AUTO VRB04KT 10SM FEW065 30/19 A3018 RMK AO2 SLP204 T03000189 TSNO

10-Day Weather Forecast

Almanac

Astronomy

Aug. 26, 2016 Rise Set
Actual Time
Civil Twilight
Nautical Twilight
Astronomical Twilight
Moon
Length of Visible Light
Length of Day
Tomorrow will be .
, % of the Moon is Illuminated

Today's Extremes

State Highs State Lows

Community

WunderPhotos

Upload Photos

1,935,203 photos uploaded!

WunderBlog® & News

Nearby

Air Quality

  Air Quality AQ Index Pollutant
Not available.

Snow Depth

Station Depth Elevation

Earthquake Activity

City Distance Mag. Time & Date
Minimum magnitude displayed is 2.5.

Coastal Water Temperatures

Place Temperature

Stations

Nearby Weather Stations

Station Location Temp. Windchill Dew Point Humidity Wind Precip. Elev Updated Type
                   

Watches & Warnings

There are currently no watches in effect.